sensor_id;sensor_type;location;lat;lon;timestamp;P1;durP1;ratioP1;P2;durP2;ratioP2
22786;SDS011;63134;52.020;4.714;2024-01-07T00:02:07;12.00;;;9.80;;
22786;SDS011;63134;52.020;4.714;2024-01-07T00:04:53;12.10;;;10.02;;
22786;SDS011;63134;52.020;4.714;2024-01-07T00:07:39;10.90;;;9.60;;
22786;SDS011;63134;52.020;4.714;2024-01-07T00:10:24;12.38;;;10.60;;
22786;SDS011;63134;52.020;4.714;2024-01-07T00:13:10;13.18;;;10.82;;
22786;SDS011;63134;52.020;4.714;2024-01-07T00:15:55;11.40;;;9.88;;
22786;SDS011;63134;52.020;4.714;2024-01-07T00:18:41;11.13;;;9.65;;
22786;SDS011;63134;52.020;4.714;2024-01-07T00:21:26;11.50;;;10.07;;
22786;SDS011;63134;52.020;4.714;2024-01-07T00:24:12;12.00;;;10.45;;
22786;SDS011;63134;52.020;4.714;2024-01-07T00:26:57;12.52;;;10.35;;
22786;SDS011;63134;52.020;4.714;2024-01-07T00:29:43;11.43;;;10.23;;
22786;SDS011;63134;52.020;4.714;2024-01-07T00:32:28;11.88;;;10.55;;
22786;SDS011;63134;52.020;4.714;2024-01-07T00:35:14;11.55;;;10.35;;
22786;SDS011;63134;52.020;4.714;2024-01-07T00:37:59;12.48;;;10.43;;
22786;SDS011;63134;52.020;4.714;2024-01-07T00:40:44;11.52;;;9.73;;
22786;SDS011;63134;52.020;4.714;2024-01-07T00:43:30;11.45;;;9.82;;
22786;SDS011;63134;52.020;4.714;2024-01-07T00:46:16;10.40;;;9.32;;
22786;SDS011;63134;52.020;4.714;2024-01-07T00:49:02;11.93;;;10.07;;
22786;SDS011;63134;52.020;4.714;2024-01-07T00:51:48;11.40;;;10.20;;
22786;SDS011;63134;52.020;4.714;2024-01-07T00:54:33;10.63;;;9.52;;
22786;SDS011;63134;52.020;4.714;2024-01-07T00:57:19;10.77;;;9.27;;
22786;SDS011;63134;52.020;4.714;2024-01-07T01:00:04;10.20;;;8.77;;
22786;SDS011;63134;52.020;4.714;2024-01-07T01:02:51;10.88;;;9.77;;
22786;SDS011;63134;52.020;4.714;2024-01-07T01:05:36;9.88;;;8.90;;
22786;SDS011;63134;52.020;4.714;2024-01-07T01:08:22;10.65;;;9.55;;
22786;SDS011;63134;52.020;4.714;2024-01-07T01:11:11;10.27;;;9.07;;
22786;SDS011;63134;52.020;4.714;2024-01-07T01:13:57;10.75;;;9.05;;
22786;SDS011;63134;52.020;4.714;2024-01-07T01:16:42;11.00;;;9.80;;
22786;SDS011;63134;52.020;4.714;2024-01-07T01:19:28;10.90;;;9.50;;
22786;SDS011;63134;52.020;4.714;2024-01-07T01:22:14;11.00;;;9.60;;
22786;SDS011;63134;52.020;4.714;2024-01-07T01:24:59;10.48;;;9.30;;
22786;SDS011;63134;52.020;4.714;2024-01-07T01:27:46;12.32;;;10.93;;
22786;SDS011;63134;52.020;4.714;2024-01-07T01:30:32;12.30;;;11.00;;
22786;SDS011;63134;52.020;4.714;2024-01-07T01:33:17;12.02;;;10.75;;
22786;SDS011;63134;52.020;4.714;2024-01-07T01:36:06;13.43;;;10.82;;
22786;SDS011;63134;52.020;4.714;2024-01-07T01:38:53;12.57;;;10.48;;
22786;SDS011;63134;52.020;4.714;2024-01-07T01:41:38;13.48;;;11.75;;
22786;SDS011;63134;52.020;4.714;2024-01-07T01:44:26;13.27;;;11.80;;
22786;SDS011;63134;52.020;4.714;2024-01-07T01:47:16;14.00;;;11.93;;
22786;SDS011;63134;52.020;4.714;2024-01-07T01:50:02;12.73;;;11.23;;
22786;SDS011;63134;52.020;4.714;2024-01-07T01:52:48;14.10;;;12.55;;
22786;SDS011;63134;52.020;4.714;2024-01-07T01:55:34;14.10;;;12.60;;
22786;SDS011;63134;52.020;4.714;2024-01-07T01:58:20;14.55;;;12.75;;
22786;SDS011;63134;52.020;4.714;2024-01-07T02:01:08;15.43;;;12.65;;
22786;SDS011;63134;52.020;4.714;2024-01-07T02:03:53;15.43;;;13.15;;
22786;SDS011;63134;52.020;4.714;2024-01-07T02:06:39;15.30;;;12.55;;
22786;SDS011;63134;52.020;4.714;2024-01-07T02:09:25;13.23;;;11.43;;
22786;SDS011;63134;52.020;4.714;2024-01-07T02:12:11;14.23;;;12.07;;
22786;SDS011;63134;52.020;4.714;2024-01-07T02:14:57;13.27;;;11.55;;
22786;SDS011;63134;52.020;4.714;2024-01-07T02:17:42;12.40;;;11.10;;
22786;SDS011;63134;52.020;4.714;2024-01-07T02:20:28;13.93;;;11.55;;
22786;SDS011;63134;52.020;4.714;2024-01-07T02:23:14;14.00;;;11.07;;
22786;SDS011;63134;52.020;4.714;2024-01-07T02:26:00;14.00;;;10.95;;
22786;SDS011;63134;52.020;4.714;2024-01-07T02:28:46;13.32;;;11.27;;
22786;SDS011;63134;52.020;4.714;2024-01-07T02:31:32;12.40;;;10.52;;
22786;SDS011;63134;52.020;4.714;2024-01-07T02:34:17;13.13;;;10.75;;
22786;SDS011;63134;52.020;4.714;2024-01-07T02:37:03;13.02;;;11.25;;
22786;SDS011;63134;52.020;4.714;2024-01-07T02:39:49;12.77;;;11.30;;
22786;SDS011;63134;52.020;4.714;2024-01-07T02:42:44;14.05;;;11.82;;
22786;SDS011;63134;52.020;4.714;2024-01-07T02:45:30;12.55;;;11.25;;
22786;SDS011;63134;52.020;4.714;2024-01-07T02:48:15;14.50;;;11.85;;
22786;SDS011;63134;52.020;4.714;2024-01-07T02:51:01;13.55;;;11.25;;
22786;SDS011;63134;52.020;4.714;2024-01-07T02:53:48;12.43;;;10.50;;
22786;SDS011;63134;52.020;4.714;2024-01-07T02:56:33;14.38;;;12.50;;
22786;SDS011;63134;52.020;4.714;2024-01-07T02:59:19;13.77;;;11.93;;
22786;SDS011;63134;52.020;4.714;2024-01-07T03:02:04;15.63;;;12.23;;
22786;SDS011;63134;52.020;4.714;2024-01-07T03:04:50;15.35;;;12.88;;
22786;SDS011;63134;52.020;4.714;2024-01-07T03:07:37;15.00;;;12.63;;
22786;SDS011;63134;52.020;4.714;2024-01-07T03:10:23;16.30;;;13.38;;
22786;SDS011;63134;52.020;4.714;2024-01-07T03:13:09;15.50;;;12.73;;
22786;SDS011;63134;52.020;4.714;2024-01-07T03:15:54;15.55;;;12.70;;
22786;SDS011;63134;52.020;4.714;2024-01-07T03:18:40;15.50;;;12.68;;
22786;SDS011;63134;52.020;4.714;2024-01-07T03:21:25;15.68;;;13.43;;
22786;SDS011;63134;52.020;4.714;2024-01-07T03:24:11;16.25;;;12.45;;
22786;SDS011;63134;52.020;4.714;2024-01-07T03:26:56;16.63;;;13.57;;
22786;SDS011;63134;52.020;4.714;2024-01-07T03:29:44;17.58;;;15.00;;
22786;SDS011;63134;52.020;4.714;2024-01-07T03:32:30;17.38;;;14.23;;
22786;SDS011;63134;52.020;4.714;2024-01-07T03:35:17;20.67;;;15.85;;
22786;SDS011;63134;52.020;4.714;2024-01-07T03:38:02;19.90;;;14.82;;
22786;SDS011;63134;52.020;4.714;2024-01-07T03:40:48;20.38;;;15.70;;
22786;SDS011;63134;52.020;4.714;2024-01-07T03:43:33;22.42;;;17.17;;
22786;SDS011;63134;52.020;4.714;2024-01-07T03:46:19;21.67;;;17.45;;
22786;SDS011;63134;52.020;4.714;2024-01-07T03:49:04;22.73;;;17.73;;
22786;SDS011;63134;52.020;4.714;2024-01-07T03:51:50;21.50;;;17.02;;
22786;SDS011;63134;52.020;4.714;2024-01-07T03:54:36;20.98;;;16.38;;
22786;SDS011;63134;52.020;4.714;2024-01-07T03:57:21;20.63;;;16.75;;
22786;SDS011;63134;52.020;4.714;2024-01-07T04:00:07;20.63;;;16.20;;
22786;SDS011;63134;52.020;4.714;2024-01-07T04:02:55;22.55;;;17.98;;
22786;SDS011;63134;52.020;4.714;2024-01-07T04:05:40;20.48;;;16.42;;
22786;SDS011;63134;52.020;4.714;2024-01-07T04:08:26;20.52;;;15.90;;
22786;SDS011;63134;52.020;4.714;2024-01-07T04:11:11;20.00;;;15.55;;
22786;SDS011;63134;52.020;4.714;2024-01-07T04:13:57;19.85;;;15.43;;
22786;SDS011;63134;52.020;4.714;2024-01-07T04:16:42;19.00;;;15.18;;
22786;SDS011;63134;52.020;4.714;2024-01-07T04:19:28;21.42;;;16.30;;
22786;SDS011;63134;52.020;4.714;2024-01-07T04:22:13;18.80;;;16.00;;
22786;SDS011;63134;52.020;4.714;2024-01-07T04:24:59;19.58;;;15.40;;
22786;SDS011;63134;52.020;4.714;2024-01-07T04:27:44;19.58;;;14.73;;
22786;SDS011;63134;52.020;4.714;2024-01-07T04:30:30;19.48;;;15.30;;
22786;SDS011;63134;52.020;4.714;2024-01-07T04:33:16;19.25;;;15.98;;
22786;SDS011;63134;52.020;4.714;2024-01-07T04:36:01;20.10;;;15.18;;
22786;SDS011;63134;52.020;4.714;2024-01-07T04:38:47;18.95;;;14.55;;
22786;SDS011;63134;52.020;4.714;2024-01-07T04:41:33;20.23;;;14.80;;
22786;SDS011;63134;52.020;4.714;2024-01-07T04:44:18;18.73;;;14.25;;
22786;SDS011;63134;52.020;4.714;2024-01-07T04:47:04;19.27;;;14.63;;
22786;SDS011;63134;52.020;4.714;2024-01-07T04:50:08;16.77;;;13.98;;
22786;SDS011;63134;52.020;4.714;2024-01-07T04:52:53;17.85;;;14.38;;
22786;SDS011;63134;52.020;4.714;2024-01-07T04:55:39;16.70;;;13.77;;
22786;SDS011;63134;52.020;4.714;2024-01-07T04:58:24;22.17;;;14.38;;
22786;SDS011;63134;52.020;4.714;2024-01-07T05:01:10;16.65;;;13.25;;
22786;SDS011;63134;52.020;4.714;2024-01-07T05:03:55;17.45;;;13.82;;
22786;SDS011;63134;52.020;4.714;2024-01-07T05:06:43;18.35;;;13.82;;
22786;SDS011;63134;52.020;4.714;2024-01-07T05:09:29;19.92;;;15.35;;
22786;SDS011;63134;52.020;4.714;2024-01-07T05:12:16;18.25;;;14.65;;
22786;SDS011;63134;52.020;4.714;2024-01-07T05:15:01;20.35;;;15.80;;
22786;SDS011;63134;52.020;4.714;2024-01-07T05:17:47;18.98;;;14.90;;
22786;SDS011;63134;52.020;4.714;2024-01-07T05:20:32;19.55;;;15.52;;
22786;SDS011;63134;52.020;4.714;2024-01-07T05:23:18;21.55;;;16.00;;
22786;SDS011;63134;52.020;4.714;2024-01-07T05:26:03;22.67;;;17.15;;
22786;SDS011;63134;52.020;4.714;2024-01-07T05:28:49;23.65;;;17.55;;
22786;SDS011;63134;52.020;4.714;2024-01-07T05:31:34;21.92;;;16.38;;
22786;SDS011;63134;52.020;4.714;2024-01-07T05:34:20;20.70;;;16.38;;
22786;SDS011;63134;52.020;4.714;2024-01-07T05:37:06;22.95;;;16.83;;
22786;SDS011;63134;52.020;4.714;2024-01-07T05:39:52;22.00;;;16.80;;
22786;SDS011;63134;52.020;4.714;2024-01-07T05:42:37;22.17;;;16.88;;
22786;SDS011;63134;52.020;4.714;2024-01-07T05:45:23;22.77;;;17.30;;
22786;SDS011;63134;52.020;4.714;2024-01-07T05:48:09;23.65;;;16.90;;
22786;SDS011;63134;52.020;4.714;2024-01-07T05:50:55;20.88;;;16.77;;
22786;SDS011;63134;52.020;4.714;2024-01-07T05:53:41;22.73;;;17.02;;
22786;SDS011;63134;52.020;4.714;2024-01-07T05:56:27;20.55;;;15.75;;
22786;SDS011;63134;52.020;4.714;2024-01-07T05:59:12;23.48;;;16.92;;
22786;SDS011;63134;52.020;4.714;2024-01-07T06:01:58;21.58;;;16.45;;
22786;SDS011;63134;52.020;4.714;2024-01-07T06:04:45;22.10;;;16.10;;
22786;SDS011;63134;52.020;4.714;2024-01-07T06:07:31;21.90;;;16.65;;
22786;SDS011;63134;52.020;4.714;2024-01-07T06:10:16;20.98;;;16.15;;
22786;SDS011;63134;52.020;4.714;2024-01-07T06:13:02;24.38;;;18.00;;
22786;SDS011;63134;52.020;4.714;2024-01-07T06:15:48;22.50;;;16.73;;
22786;SDS011;63134;52.020;4.714;2024-01-07T06:18:34;21.17;;;16.40;;
22786;SDS011;63134;52.020;4.714;2024-01-07T06:21:23;22.95;;;17.95;;
22786;SDS011;63134;52.020;4.714;2024-01-07T06:24:08;23.73;;;17.17;;
22786;SDS011;63134;52.020;4.714;2024-01-07T06:26:54;21.60;;;16.38;;
22786;SDS011;63134;52.020;4.714;2024-01-07T06:29:39;22.48;;;17.80;;
22786;SDS011;63134;52.020;4.714;2024-01-07T06:32:25;24.00;;;19.15;;
22786;SDS011;63134;52.020;4.714;2024-01-07T06:35:11;24.25;;;17.88;;
22786;SDS011;63134;52.020;4.714;2024-01-07T06:37:56;22.65;;;17.00;;
22786;SDS011;63134;52.020;4.714;2024-01-07T06:40:42;23.98;;;18.33;;
22786;SDS011;63134;52.020;4.714;2024-01-07T06:43:27;22.88;;;17.63;;
22786;SDS011;63134;52.020;4.714;2024-01-07T06:46:13;25.15;;;17.75;;
22786;SDS011;63134;52.020;4.714;2024-01-07T06:48:58;21.60;;;17.48;;
22786;SDS011;63134;52.020;4.714;2024-01-07T06:51:44;26.30;;;19.10;;
22786;SDS011;63134;52.020;4.714;2024-01-07T06:54:30;22.05;;;17.80;;
22786;SDS011;63134;52.020;4.714;2024-01-07T06:57:15;23.10;;;17.52;;
22786;SDS011;63134;52.020;4.714;2024-01-07T07:00:01;23.88;;;17.83;;
22786;SDS011;63134;52.020;4.714;2024-01-07T07:02:47;20.60;;;17.10;;
22786;SDS011;63134;52.020;4.714;2024-01-07T07:05:33;24.13;;;17.17;;
22786;SDS011;63134;52.020;4.714;2024-01-07T07:08:19;20.92;;;16.13;;
22786;SDS011;63134;52.020;4.714;2024-01-07T07:11:04;20.50;;;16.10;;
22786;SDS011;63134;52.020;4.714;2024-01-07T07:13:50;21.35;;;16.20;;
22786;SDS011;63134;52.020;4.714;2024-01-07T07:16:35;18.27;;;15.48;;
22786;SDS011;63134;52.020;4.714;2024-01-07T07:19:21;19.90;;;15.27;;
22786;SDS011;63134;52.020;4.714;2024-01-07T07:22:07;20.83;;;15.48;;
22786;SDS011;63134;52.020;4.714;2024-01-07T07:24:53;18.98;;;15.30;;
22786;SDS011;63134;52.020;4.714;2024-01-07T07:27:41;18.80;;;14.93;;
22786;SDS011;63134;52.020;4.714;2024-01-07T07:30:26;21.27;;;14.60;;
22786;SDS011;63134;52.020;4.714;2024-01-07T07:33:12;18.85;;;14.80;;
22786;SDS011;63134;52.020;4.714;2024-01-07T07:35:58;21.67;;;15.80;;
22786;SDS011;63134;52.020;4.714;2024-01-07T07:38:44;19.52;;;15.50;;
22786;SDS011;63134;52.020;4.714;2024-01-07T07:41:29;17.65;;;13.98;;
22786;SDS011;63134;52.020;4.714;2024-01-07T07:44:15;19.98;;;15.13;;
22786;SDS011;63134;52.020;4.714;2024-01-07T07:47:01;18.42;;;14.55;;
22786;SDS011;63134;52.020;4.714;2024-01-07T07:49:46;19.92;;;15.00;;
22786;SDS011;63134;52.020;4.714;2024-01-07T07:52:32;19.90;;;15.07;;
22786;SDS011;63134;52.020;4.714;2024-01-07T07:55:17;21.75;;;14.73;;
22786;SDS011;63134;52.020;4.714;2024-01-07T07:58:03;19.77;;;14.60;;
22786;SDS011;63134;52.020;4.714;2024-01-07T08:00:48;20.45;;;15.85;;
22786;SDS011;63134;52.020;4.714;2024-01-07T08:03:34;17.70;;;14.15;;
22786;SDS011;63134;52.020;4.714;2024-01-07T08:06:22;18.23;;;13.88;;
22786;SDS011;63134;52.020;4.714;2024-01-07T08:09:07;18.65;;;13.82;;
22786;SDS011;63134;52.020;4.714;2024-01-07T08:11:53;18.90;;;15.02;;
22786;SDS011;63134;52.020;4.714;2024-01-07T08:14:39;15.05;;;12.82;;
22786;SDS011;63134;52.020;4.714;2024-01-07T08:17:27;16.00;;;12.52;;
22786;SDS011;63134;52.020;4.714;2024-01-07T08:20:14;19.30;;;13.23;;
22786;SDS011;63134;52.020;4.714;2024-01-07T08:22:59;20.77;;;14.20;;
22786;SDS011;63134;52.020;4.714;2024-01-07T08:25:45;15.95;;;12.48;;
22786;SDS011;63134;52.020;4.714;2024-01-07T08:28:31;17.27;;;13.45;;
22786;SDS011;63134;52.020;4.714;2024-01-07T08:31:16;16.88;;;13.10;;
22786;SDS011;63134;52.020;4.714;2024-01-07T08:34:03;17.73;;;12.70;;
22786;SDS011;63134;52.020;4.714;2024-01-07T08:36:49;14.63;;;12.65;;
22786;SDS011;63134;52.020;4.714;2024-01-07T08:39:35;16.33;;;12.30;;
22786;SDS011;63134;52.020;4.714;2024-01-07T08:42:20;15.80;;;10.93;;
22786;SDS011;63134;52.020;4.714;2024-01-07T08:45:06;13.10;;;11.50;;
22786;SDS011;63134;52.020;4.714;2024-01-07T08:47:52;15.98;;;12.00;;
22786;SDS011;63134;52.020;4.714;2024-01-07T08:50:38;15.82;;;14.13;;
22786;SDS011;63134;52.020;4.714;2024-01-07T08:53:23;16.45;;;13.07;;
22786;SDS011;63134;52.020;4.714;2024-01-07T08:56:09;16.58;;;12.68;;
22786;SDS011;63134;52.020;4.714;2024-01-07T08:58:54;15.95;;;13.40;;
22786;SDS011;63134;52.020;4.714;2024-01-07T09:01:40;16.08;;;12.80;;
22786;SDS011;63134;52.020;4.714;2024-01-07T09:04:25;19.67;;;12.93;;
22786;SDS011;63134;52.020;4.714;2024-01-07T09:07:11;17.17;;;13.60;;
22786;SDS011;63134;52.020;4.714;2024-01-07T09:09:56;16.67;;;14.23;;
22786;SDS011;63134;52.020;4.714;2024-01-07T09:12:44;14.18;;;11.95;;
22786;SDS011;63134;52.020;4.714;2024-01-07T09:15:31;15.50;;;12.77;;
22786;SDS011;63134;52.020;4.714;2024-01-07T09:18:16;15.32;;;12.85;;
22786;SDS011;63134;52.020;4.714;2024-01-07T09:21:03;14.77;;;11.80;;
22786;SDS011;63134;52.020;4.714;2024-01-07T09:23:49;15.40;;;12.65;;
22786;SDS011;63134;52.020;4.714;2024-01-07T09:26:35;14.38;;;11.95;;
22786;SDS011;63134;52.020;4.714;2024-01-07T09:29:20;16.52;;;11.45;;
22786;SDS011;63134;52.020;4.714;2024-01-07T09:32:06;15.38;;;11.55;;
22786;SDS011;63134;52.020;4.714;2024-01-07T09:34:51;15.23;;;11.75;;
22786;SDS011;63134;52.020;4.714;2024-01-07T09:37:37;14.27;;;10.98;;
22786;SDS011;63134;52.020;4.714;2024-01-07T09:40:22;14.05;;;10.57;;
22786;SDS011;63134;52.020;4.714;2024-01-07T09:43:08;15.40;;;12.13;;
22786;SDS011;63134;52.020;4.714;2024-01-07T09:45:54;15.65;;;11.15;;
22786;SDS011;63134;52.020;4.714;2024-01-07T09:48:42;13.35;;;10.32;;
22786;SDS011;63134;52.020;4.714;2024-01-07T09:51:28;15.02;;;11.38;;
22786;SDS011;63134;52.020;4.714;2024-01-07T09:54:16;14.45;;;10.45;;
22786;SDS011;63134;52.020;4.714;2024-01-07T09:57:05;12.93;;;10.73;;
22786;SDS011;63134;52.020;4.714;2024-01-07T09:59:52;13.18;;;11.23;;
22786;SDS011;63134;52.020;4.714;2024-01-07T10:02:37;14.18;;;11.05;;
22786;SDS011;63134;52.020;4.714;2024-01-07T10:05:26;13.60;;;10.07;;
22786;SDS011;63134;52.020;4.714;2024-01-07T10:08:12;16.13;;;10.52;;
22786;SDS011;63134;52.020;4.714;2024-01-07T10:10:57;11.77;;;9.82;;
22786;SDS011;63134;52.020;4.714;2024-01-07T10:13:46;12.73;;;10.93;;
22786;SDS011;63134;52.020;4.714;2024-01-07T10:16:36;13.43;;;10.07;;
22786;SDS011;63134;52.020;4.714;2024-01-07T10:19:22;11.32;;;10.13;;
22786;SDS011;63134;52.020;4.714;2024-01-07T10:22:09;13.77;;;10.32;;
22786;SDS011;63134;52.020;4.714;2024-01-07T10:24:57;12.40;;;9.95;;
22786;SDS011;63134;52.020;4.714;2024-01-07T10:27:42;11.40;;;9.43;;
22786;SDS011;63134;52.020;4.714;2024-01-07T10:30:28;11.73;;;9.65;;
22786;SDS011;63134;52.020;4.714;2024-01-07T10:33:16;10.90;;;8.68;;
22786;SDS011;63134;52.020;4.714;2024-01-07T10:36:05;10.25;;;8.30;;
22786;SDS011;63134;52.020;4.714;2024-01-07T10:38:51;12.30;;;8.90;;
22786;SDS011;63134;52.020;4.714;2024-01-07T10:41:37;7.88;;;7.07;;
22786;SDS011;63134;52.020;4.714;2024-01-07T10:44:28;13.60;;;8.07;;
22786;SDS011;63134;52.020;4.714;2024-01-07T10:47:18;12.88;;;7.80;;
22786;SDS011;63134;52.020;4.714;2024-01-07T10:50:08;11.48;;;7.78;;
22786;SDS011;63134;52.020;4.714;2024-01-07T10:53:02;11.20;;;7.80;;
22786;SDS011;63134;52.020;4.714;2024-01-07T10:55:59;10.68;;;7.18;;
22786;SDS011;63134;52.020;4.714;2024-01-07T10:58:48;10.20;;;8.30;;
22786;SDS011;63134;52.020;4.714;2024-01-07T11:01:36;13.02;;;7.90;;
22786;SDS011;63134;52.020;4.714;2024-01-07T11:04:23;9.88;;;7.25;;
22786;SDS011;63134;52.020;4.714;2024-01-07T11:07:44;7.32;;;5.88;;
22786;SDS011;63134;52.020;4.714;2024-01-07T11:10:42;7.15;;;5.63;;
22786;SDS011;63134;52.020;4.714;2024-01-07T11:13:37;7.70;;;6.00;;
22786;SDS011;63134;52.020;4.714;2024-01-07T11:19:25;8.73;;;6.45;;
22786;SDS011;63134;52.020;4.714;2024-01-07T11:22:24;8.05;;;5.50;;
22786;SDS011;63134;52.020;4.714;2024-01-07T11:25:29;6.90;;;5.30;;
22786;SDS011;63134;52.020;4.714;2024-01-07T11:28:17;8.25;;;5.03;;
22786;SDS011;63134;52.020;4.714;2024-01-07T11:31:02;7.18;;;4.88;;
22786;SDS011;63134;52.020;4.714;2024-01-07T11:33:48;9.30;;;5.35;;
22786;SDS011;63134;52.020;4.714;2024-01-07T11:36:35;6.15;;;4.80;;
22786;SDS011;63134;52.020;4.714;2024-01-07T11:39:21;7.85;;;5.15;;
22786;SDS011;63134;52.020;4.714;2024-01-07T11:42:06;6.03;;;4.40;;
22786;SDS011;63134;52.020;4.714;2024-01-07T11:44:53;5.07;;;4.03;;
22786;SDS011;63134;52.020;4.714;2024-01-07T11:47:42;5.75;;;4.03;;
22786;SDS011;63134;52.020;4.714;2024-01-07T11:50:27;8.65;;;4.82;;
22786;SDS011;63134;52.020;4.714;2024-01-07T11:53:13;7.20;;;4.15;;
22786;SDS011;63134;52.020;4.714;2024-01-07T11:55:58;6.28;;;3.95;;
22786;SDS011;63134;52.020;4.714;2024-01-07T11:58:44;5.55;;;3.63;;
22786;SDS011;63134;52.020;4.714;2024-01-07T12:01:30;4.10;;;3.40;;
22786;SDS011;63134;52.020;4.714;2024-01-07T12:04:16;5.03;;;3.45;;
22786;SDS011;63134;52.020;4.714;2024-01-07T12:07:01;4.43;;;3.00;;
22786;SDS011;63134;52.020;4.714;2024-01-07T12:09:55;4.28;;;3.33;;
22786;SDS011;63134;52.020;4.714;2024-01-07T12:12:43;5.03;;;3.45;;
22786;SDS011;63134;52.020;4.714;2024-01-07T12:15:29;5.13;;;3.35;;
22786;SDS011;63134;52.020;4.714;2024-01-07T12:18:15;5.82;;;3.25;;
22786;SDS011;63134;52.020;4.714;2024-01-07T12:21:01;4.20;;;3.20;;
22786;SDS011;63134;52.020;4.714;2024-01-07T12:23:47;5.18;;;3.90;;
22786;SDS011;63134;52.020;4.714;2024-01-07T12:26:36;4.75;;;3.67;;
22786;SDS011;63134;52.020;4.714;2024-01-07T12:29:22;6.97;;;3.95;;
22786;SDS011;63134;52.020;4.714;2024-01-07T12:32:10;4.32;;;3.28;;
22786;SDS011;63134;52.020;4.714;2024-01-07T12:34:59;4.18;;;3.13;;
22786;SDS011;63134;52.020;4.714;2024-01-07T12:37:47;3.95;;;3.13;;
22786;SDS011;63134;52.020;4.714;2024-01-07T12:40:33;4.85;;;3.47;;
22786;SDS011;63134;52.020;4.714;2024-01-07T12:43:19;3.65;;;3.05;;
22786;SDS011;63134;52.020;4.714;2024-01-07T12:46:05;4.05;;;2.92;;
22786;SDS011;63134;52.020;4.714;2024-01-07T12:48:52;6.28;;;3.22;;
22786;SDS011;63134;52.020;4.714;2024-01-07T12:51:38;3.85;;;3.20;;
22786;SDS011;63134;52.020;4.714;2024-01-07T12:54:23;5.47;;;2.88;;
22786;SDS011;63134;52.020;4.714;2024-01-07T12:57:09;4.50;;;2.45;;
22786;SDS011;63134;52.020;4.714;2024-01-07T12:59:55;3.20;;;2.28;;
22786;SDS011;63134;52.020;4.714;2024-01-07T13:02:40;3.50;;;2.03;;
22786;SDS011;63134;52.020;4.714;2024-01-07T13:05:26;3.75;;;2.40;;
22786;SDS011;63134;52.020;4.714;2024-01-07T13:08:13;2.25;;;1.92;;
22786;SDS011;63134;52.020;4.714;2024-01-07T13:10:58;2.22;;;1.83;;
22786;SDS011;63134;52.020;4.714;2024-01-07T13:13:45;2.78;;;1.70;;
22786;SDS011;63134;52.020;4.714;2024-01-07T13:16:31;3.20;;;2.13;;
22786;SDS011;63134;52.020;4.714;2024-01-07T13:19:17;2.58;;;2.00;;
22786;SDS011;63134;52.020;4.714;2024-01-07T13:22:03;4.13;;;1.60;;
22786;SDS011;63134;52.020;4.714;2024-01-07T13:24:48;2.88;;;2.20;;
22786;SDS011;63134;52.020;4.714;2024-01-07T13:27:35;2.75;;;2.17;;
22786;SDS011;63134;52.020;4.714;2024-01-07T13:30:22;1.90;;;1.70;;
22786;SDS011;63134;52.020;4.714;2024-01-07T13:33:08;1.92;;;1.75;;
22786;SDS011;63134;52.020;4.714;2024-01-07T13:35:53;2.97;;;1.83;;
22786;SDS011;63134;52.020;4.714;2024-01-07T13:38:39;1.58;;;1.45;;
22786;SDS011;63134;52.020;4.714;2024-01-07T13:41:28;2.67;;;1.60;;
22786;SDS011;63134;52.020;4.714;2024-01-07T13:44:13;2.03;;;1.50;;
22786;SDS011;63134;52.020;4.714;2024-01-07T13:47:02;2.85;;;1.73;;
22786;SDS011;63134;52.020;4.714;2024-01-07T13:49:50;2.45;;;1.65;;
22786;SDS011;63134;52.020;4.714;2024-01-07T13:52:35;6.45;;;1.52;;
22786;SDS011;63134;52.020;4.714;2024-01-07T13:55:21;3.58;;;1.88;;
22786;SDS011;63134;52.020;4.714;2024-01-07T13:58:06;2.85;;;1.90;;
22786;SDS011;63134;52.020;4.714;2024-01-07T14:00:52;2.00;;;1.70;;
22786;SDS011;63134;52.020;4.714;2024-01-07T14:03:37;4.28;;;1.85;;
22786;SDS011;63134;52.020;4.714;2024-01-07T14:06:23;1.70;;;1.60;;
22786;SDS011;63134;52.020;4.714;2024-01-07T14:09:08;2.50;;;1.95;;
22786;SDS011;63134;52.020;4.714;2024-01-07T14:11:54;2.33;;;1.58;;
22786;SDS011;63134;52.020;4.714;2024-01-07T14:14:39;2.13;;;1.85;;
22786;SDS011;63134;52.020;4.714;2024-01-07T14:17:25;1.80;;;1.70;;
22786;SDS011;63134;52.020;4.714;2024-01-07T14:20:10;4.00;;;2.13;;
22786;SDS011;63134;52.020;4.714;2024-01-07T14:22:56;2.10;;;1.80;;
22786;SDS011;63134;52.020;4.714;2024-01-07T14:25:41;2.42;;;1.80;;
22786;SDS011;63134;52.020;4.714;2024-01-07T14:28:27;2.45;;;1.80;;
22786;SDS011;63134;52.020;4.714;2024-01-07T14:31:13;4.00;;;2.00;;
22786;SDS011;63134;52.020;4.714;2024-01-07T14:33:59;2.55;;;1.90;;
22786;SDS011;63134;52.020;4.714;2024-01-07T14:36:45;2.53;;;2.00;;
22786;SDS011;63134;52.020;4.714;2024-01-07T14:39:30;2.47;;;1.95;;
22786;SDS011;63134;52.020;4.714;2024-01-07T14:42:16;2.35;;;1.55;;
22786;SDS011;63134;52.020;4.714;2024-01-07T14:45:01;4.13;;;2.05;;
22786;SDS011;63134;52.020;4.714;2024-01-07T14:47:49;2.05;;;1.80;;
22786;SDS011;63134;52.020;4.714;2024-01-07T14:50:34;2.33;;;1.70;;
22786;SDS011;63134;52.020;4.714;2024-01-07T14:53:26;2.42;;;1.73;;
22786;SDS011;63134;52.020;4.714;2024-01-07T14:56:13;2.63;;;1.80;;
22786;SDS011;63134;52.020;4.714;2024-01-07T14:58:59;2.10;;;1.67;;
22786;SDS011;63134;52.020;4.714;2024-01-07T15:01:44;4.93;;;1.92;;
22786;SDS011;63134;52.020;4.714;2024-01-07T15:04:30;1.55;;;1.45;;
22786;SDS011;63134;52.020;4.714;2024-01-07T15:07:16;3.30;;;1.90;;
22786;SDS011;63134;52.020;4.714;2024-01-07T15:10:03;1.88;;;1.75;;
22786;SDS011;63134;52.020;4.714;2024-01-07T15:12:49;2.75;;;1.70;;
22786;SDS011;63134;52.020;4.714;2024-01-07T15:15:46;3.03;;;1.55;;
22786;SDS011;63134;52.020;4.714;2024-01-07T15:18:32;3.22;;;2.00;;
22786;SDS011;63134;52.020;4.714;2024-01-07T15:21:22;3.50;;;1.90;;
22786;SDS011;63134;52.020;4.714;2024-01-07T15:24:09;3.33;;;1.75;;
22786;SDS011;63134;52.020;4.714;2024-01-07T15:26:55;3.05;;;1.85;;
22786;SDS011;63134;52.020;4.714;2024-01-07T15:29:40;2.92;;;2.03;;
22786;SDS011;63134;52.020;4.714;2024-01-07T15:32:26;1.95;;;1.70;;
22786;SDS011;63134;52.020;4.714;2024-01-07T15:35:12;2.20;;;2.00;;
22786;SDS011;63134;52.020;4.714;2024-01-07T15:37:58;3.35;;;1.85;;
22786;SDS011;63134;52.020;4.714;2024-01-07T15:40:43;6.07;;;2.28;;
22786;SDS011;63134;52.020;4.714;2024-01-07T15:43:29;3.50;;;1.98;;
22786;SDS011;63134;52.020;4.714;2024-01-07T15:46:15;3.90;;;2.13;;
22786;SDS011;63134;52.020;4.714;2024-01-07T15:49:00;2.30;;;2.10;;
22786;SDS011;63134;52.020;4.714;2024-01-07T15:51:46;3.97;;;2.00;;
22786;SDS011;63134;52.020;4.714;2024-01-07T15:54:31;3.67;;;2.20;;
22786;SDS011;63134;52.020;4.714;2024-01-07T15:57:17;4.25;;;2.65;;
22786;SDS011;63134;52.020;4.714;2024-01-07T16:00:03;2.92;;;2.33;;
22786;SDS011;63134;52.020;4.714;2024-01-07T16:02:49;2.67;;;2.38;;
22786;SDS011;63134;52.020;4.714;2024-01-07T16:05:35;3.70;;;2.40;;
22786;SDS011;63134;52.020;4.714;2024-01-07T16:08:20;4.50;;;2.33;;
22786;SDS011;63134;52.020;4.714;2024-01-07T16:11:06;2.65;;;2.30;;
22786;SDS011;63134;52.020;4.714;2024-01-07T16:13:52;3.28;;;2.30;;
22786;SDS011;63134;52.020;4.714;2024-01-07T16:16:37;3.30;;;2.30;;
22786;SDS011;63134;52.020;4.714;2024-01-07T16:19:26;4.30;;;2.70;;
22786;SDS011;63134;52.020;4.714;2024-01-07T16:22:14;3.92;;;2.50;;
22786;SDS011;63134;52.020;4.714;2024-01-07T16:24:59;6.10;;;2.10;;
22786;SDS011;63134;52.020;4.714;2024-01-07T16:27:44;3.47;;;2.30;;